Time;durP1;ratioP1;P1;durP2;ratioP2;P2;SDS_P1;SDS_P2;PMS_P1;PMS_P2;Temp;Humidity;BMP_temperature;BMP_pressure;BME280_temperature;BME280_humidity;BME280_pressure;Samples;Min_cycle;Max_cycle;Signal;HPM_P1;HPM_P2
2022/07/13 00:01:16;;;;;;;1.23;0.50;;;18.50;53.70;;;;;;4934845;28;20051;-71
2022/07/13 00:03:41;;;;;;;0.73;0.70;;;18.50;53.80;;;;;;4937813;28;20501;-70
2022/07/13 00:06:07;;;;;;;1.33;0.60;;;18.40;53.90;;;;;;4936619;28;20039;-71
2022/07/13 00:08:33;;;;;;;0.70;0.52;;;18.40;54.10;;;;;;4963728;28;20084;-70
2022/07/13 00:10:58;;;;;;;1.33;0.70;;;18.30;54.30;;;;;;4962136;28;20147;-71
2022/07/13 00:13:24;;;;;;;2.28;0.63;;;18.30;54.40;;;;;;4942682;28;20034;-70
2022/07/13 00:15:49;;;;;;;1.33;1.02;;;18.20;54.40;;;;;;4931784;28;20046;-70
2022/07/13 00:18:15;;;;;;;0.50;0.50;;;18.20;54.50;;;;;;4933449;28;20046;-70
2022/07/13 00:20:40;;;;;;;0.50;0.45;;;18.20;54.60;;;;;;4951924;28;20054;-71
2022/07/13 00:23:06;;;;;;;3.72;0.70;;;18.10;54.70;;;;;;4942450;28;20146;-74
2022/07/13 00:25:31;;;;;;;1.05;0.60;;;18.10;54.80;;;;;;4944801;28;20043;-70
2022/07/13 00:27:57;;;;;;;1.02;0.70;;;18.00;54.90;;;;;;4936266;28;20043;-70
2022/07/13 00:30:23;;;;;;;3.20;0.60;;;18.00;55.00;;;;;;4937395;28;20095;-70
2022/07/13 00:32:48;;;;;;;2.47;0.60;;;18.00;55.20;;;;;;4941872;28;20046;-71
2022/07/13 00:35:14;;;;;;;1.15;0.70;;;17.90;55.30;;;;;;4927080;28;20043;-70
2022/07/13 00:37:39;;;;;;;2.35;0.68;;;17.90;55.40;;;;;;4933421;28;20118;-70
2022/07/13 00:40:05;;;;;;;0.55;0.55;;;17.90;55.50;;;;;;4935877;28;20535;-71
2022/07/13 00:42:31;;;;;;;2.85;0.70;;;17.80;55.70;;;;;;4961021;28;20042;-70
2022/07/13 00:44:56;;;;;;;2.10;0.80;;;17.80;55.70;;;;;;4960828;28;20038;-70
2022/07/13 00:47:22;;;;;;;1.08;0.70;;;17.80;55.90;;;;;;4961218;28;20034;-72
2022/07/13 00:49:48;;;;;;;0.50;0.50;;;17.80;56.00;;;;;;4929811;28;20408;-70
2022/07/13 00:52:14;;;;;;;1.20;0.73;;;17.70;56.20;;;;;;4934586;28;21207;-69
2022/07/13 00:54:41;;;;;;;2.28;0.68;;;17.70;56.20;;;;;;4953539;28;20108;-70
2022/07/13 00:57:07;;;;;;;2.80;0.70;;;17.70;56.40;;;;;;4952819;28;20034;-71
2022/07/13 00:59:33;;;;;;;0.70;0.52;;;17.70;56.40;;;;;;4945121;28;20047;-70
2022/07/13 01:01:58;;;;;;;0.80;0.77;;;17.70;56.50;;;;;;4939612;28;20680;-72
2022/07/13 01:04:24;;;;;;;6.50;0.60;;;17.70;56.60;;;;;;4929939;28;20479;-71
2022/07/13 01:06:52;;;;;;;0.68;0.60;;;17.60;56.70;;;;;;4937577;28;20487;-71
2022/07/13 01:09:18;;;;;;;0.63;0.60;;;17.60;56.80;;;;;;4927973;28;20062;-71
2022/07/13 01:11:43;;;;;;;0.70;0.70;;;17.60;56.90;;;;;;4965222;28;20613;-72
2022/07/13 01:14:09;;;;;;;0.73;0.70;;;17.60;57.10;;;;;;4955785;28;20046;-70
2022/07/13 01:16:34;;;;;;;0.95;0.68;;;17.60;57.30;;;;;;4934331;28;20042;-71
2022/07/13 01:19:00;;;;;;;3.35;0.60;;;17.60;57.20;;;;;;4905530;28;20031;-71
2022/07/13 01:21:25;;;;;;;2.63;0.80;;;17.60;57.30;;;;;;4917652;28;20568;-70
2022/07/13 01:23:51;;;;;;;1.90;0.73;;;17.60;57.50;;;;;;4946211;28;20058;-70
2022/07/13 01:26:16;;;;;;;0.80;0.80;;;17.60;57.60;;;;;;4920757;28;21261;-72
2022/07/13 01:28:42;;;;;;;2.10;0.70;;;17.60;57.60;;;;;;4944083;28;20043;-70
2022/07/13 01:31:08;;;;;;;2.15;0.70;;;17.60;57.80;;;;;;4922174;28;20066;-70
2022/07/13 01:33:33;;;;;;;0.93;0.63;;;17.60;57.90;;;;;;4918943;28;20042;-70
2022/07/13 01:35:59;;;;;;;2.75;0.80;;;17.60;57.90;;;;;;4949873;28;20043;-70
2022/07/13 01:38:24;;;;;;;0.60;0.60;;;17.60;58.10;;;;;;4927915;28;20675;-70
2022/07/13 01:40:50;;;;;;;1.00;0.90;;;17.60;58.10;;;;;;4939329;28;20121;-70
2022/07/13 01:43:16;;;;;;;0.80;0.65;;;17.50;58.10;;;;;;4941651;28;20079;-70
2022/07/13 01:45:44;;;;;;;1.55;0.57;;;17.50;58.30;;;;;;4951471;28;20037;-70
2022/07/13 01:48:10;;;;;;;1.60;0.65;;;17.50;58.20;;;;;;4969991;28;20125;-70
2022/07/13 01:50:35;;;;;;;0.60;0.60;;;17.50;58.40;;;;;;4957388;28;20138;-71
2022/07/13 01:53:01;;;;;;;2.80;0.70;;;17.50;58.40;;;;;;4958618;28;21276;-71
2022/07/13 01:55:26;;;;;;;0.75;0.70;;;17.60;58.50;;;;;;4927540;28;20505;-72
2022/07/13 01:57:59;;;;;;;1.92;0.80;;;17.50;58.50;;;;;;4960447;28;20101;-70
2022/07/13 02:00:24;;;;;;;1.20;0.93;;;17.50;58.60;;;;;;4964407;28;20046;-71
2022/07/13 02:02:50;;;;;;;4.63;0.70;;;17.60;58.60;;;;;;4941340;28;20050;-69
2022/07/13 02:05:15;;;;;;;1.02;0.80;;;17.50;58.70;;;;;;4940944;28;20049;-73
2022/07/13 02:07:41;;;;;;;1.25;1.05;;;17.50;58.60;;;;;;4936414;28;20050;-69
2022/07/13 02:10:08;;;;;;;1.27;0.52;;;17.50;58.70;;;;;;4910466;28;20125;-70
2022/07/13 02:12:33;;;;;;;0.85;0.75;;;17.50;58.70;;;;;;4950808;28;20040;-70
2022/07/13 02:14:59;;;;;;;0.77;0.77;;;17.60;58.80;;;;;;4951755;28;20046;-70
2022/07/13 02:17:25;;;;;;;1.60;0.70;;;17.60;58.90;;;;;;4989242;28;20043;-70
2022/07/13 02:19:51;;;;;;;1.35;0.80;;;17.60;58.90;;;;;;4952917;28;20038;-69
2022/07/13 02:22:16;;;;;;;0.77;0.77;;;17.50;58.90;;;;;;4967114;28;20061;-69
2022/07/13 02:24:42;;;;;;;1.65;0.90;;;17.50;58.90;;;;;;4970610;28;20118;-70
2022/07/13 02:27:08;;;;;;;1.05;0.90;;;17.50;58.90;;;;;;4948107;28;20152;-71
2022/07/13 02:29:33;;;;;;;1.40;0.90;;;17.50;58.90;;;;;;4952886;28;20032;-71
2022/07/13 02:31:59;;;;;;;1.45;0.70;;;17.50;59.00;;;;;;4949750;28;20087;-70
2022/07/13 02:34:27;;;;;;;1.80;0.95;;;17.40;59.00;;;;;;4941270;28;20098;-70
2022/07/13 02:36:53;;;;;;;0.80;0.77;;;17.40;59.00;;;;;;4944562;28;20114;-70
2022/07/13 02:39:19;;;;;;;0.88;0.80;;;17.40;59.10;;;;;;4944204;28;20035;-70
2022/07/13 02:41:45;;;;;;;1.10;0.90;;;17.40;59.10;;;;;;4936109;28;20042;-70
2022/07/13 02:44:10;;;;;;;0.70;0.70;;;17.40;59.20;;;;;;4957329;28;20105;-70
2022/07/13 02:46:36;;;;;;;1.48;0.80;;;17.30;59.10;;;;;;4969145;28;20050;-70
2022/07/13 02:49:01;;;;;;;0.90;0.70;;;17.30;59.30;;;;;;4958886;28;20027;-69
2022/07/13 02:51:27;;;;;;;1.15;0.80;;;17.30;59.30;;;;;;4952009;28;20055;-69
2022/07/13 02:53:52;;;;;;;1.83;0.80;;;17.30;59.40;;;;;;4941483;28;20413;-69
2022/07/13 02:56:18;;;;;;;0.80;0.70;;;17.20;59.30;;;;;;4962651;28;20539;-69
2022/07/13 02:58:43;;;;;;;1.70;0.88;;;17.20;59.60;;;;;;4953548;28;20566;-70
2022/07/13 03:01:09;;;;;;;1.23;0.80;;;17.20;59.50;;;;;;4942294;28;20038;-69
2022/07/13 03:03:34;;;;;;;2.40;0.98;;;17.10;59.50;;;;;;4946197;28;20062;-69
2022/07/13 03:06:01;;;;;;;1.38;0.90;;;17.10;59.60;;;;;;4950138;28;20061;-70
2022/07/13 03:08:27;;;;;;;0.90;0.90;;;17.00;59.70;;;;;;4952469;28;20042;-71
2022/07/13 03:14:14;;;;;;;1.98;1.10;;;17.00;60.10;;;;;;4961297;28;20057;-70
2022/07/13 03:16:40;;;;;;;1.02;0.93;;;16.90;59.70;;;;;;4944289;28;20852;-69
2022/07/13 03:19:07;;;;;;;2.58;0.80;;;16.90;59.70;;;;;;4964584;28;20039;-71
2022/07/13 03:21:32;;;;;;;0.77;0.77;;;16.90;59.70;;;;;;4935798;28;20039;-70
2022/07/13 03:23:58;;;;;;;1.48;0.70;;;16.90;59.90;;;;;;4938437;28;20071;-69
2022/07/13 03:26:24;;;;;;;3.08;1.00;;;16.80;59.90;;;;;;4930482;28;20073;-70
2022/07/13 03:28:49;;;;;;;0.93;0.90;;;16.80;60.00;;;;;;4951175;28;20125;-70
2022/07/13 03:31:15;;;;;;;0.98;0.90;;;16.80;60.20;;;;;;4958905;28;20173;-70
2022/07/13 03:33:41;;;;;;;1.05;0.70;;;16.70;60.10;;;;;;4937282;28;20051;-71
2022/07/13 03:36:07;;;;;;;3.80;0.95;;;16.70;60.30;;;;;;4932224;28;20642;-71
2022/07/13 03:38:33;;;;;;;1.45;1.00;;;16.70;60.50;;;;;;4953812;28;21889;-70
2022/07/13 03:40:59;;;;;;;1.85;0.93;;;16.70;60.50;;;;;;4946353;28;20154;-70
2022/07/13 03:43:24;;;;;;;1.75;0.90;;;16.70;60.60;;;;;;4940444;28;20085;-71
2022/07/13 03:45:50;;;;;;;2.03;0.90;;;16.60;60.70;;;;;;4940285;28;20123;-71
2022/07/13 03:48:16;;;;;;;4.45;0.80;;;16.60;60.90;;;;;;4937549;28;20444;-70
2022/07/13 03:50:43;;;;;;;0.70;0.70;;;16.60;60.90;;;;;;4963429;28;20035;-70
2022/07/13 03:53:08;;;;;;;0.70;0.70;;;16.60;61.00;;;;;;4952444;28;20034;-71
2022/07/13 03:55:34;;;;;;;1.25;0.82;;;16.60;61.20;;;;;;4943025;28;20044;-69
2022/07/13 03:57:59;;;;;;;7.05;0.77;;;16.60;61.30;;;;;;4937685;28;20535;-70
2022/07/13 04:00:25;;;;;;;1.02;0.93;;;16.50;61.40;;;;;;4950242;28;20030;-70
2022/07/13 04:02:50;;;;;;;2.28;0.75;;;16.50;61.40;;;;;;4907736;28;20443;-69
2022/07/13 04:05:16;;;;;;;1.00;0.73;;;16.50;61.50;;;;;;4929848;28;20810;-69
2022/07/13 04:07:41;;;;;;;1.20;1.10;;;16.50;61.60;;;;;;4961594;28;20031;-69
2022/07/13 04:10:07;;;;;;;1.98;1.20;;;16.50;61.70;;;;;;4956909;28;20638;-70
2022/07/13 04:12:33;;;;;;;1.20;0.82;;;16.50;61.80;;;;;;4917605;28;20058;-71
2022/07/13 04:14:58;;;;;;;2.33;0.82;;;16.50;61.90;;;;;;4935100;28;20050;-69
2022/07/13 04:17:24;;;;;;;2.40;1.00;;;16.50;62.00;;;;;;4927337;28;20027;-69
2022/07/13 04:19:49;;;;;;;2.35;0.82;;;16.50;62.10;;;;;;4929214;28;20053;-72
2022/07/13 04:22:15;;;;;;;0.70;0.70;;;16.50;62.20;;;;;;4965390;28;20754;-70
2022/07/13 04:24:40;;;;;;;3.03;0.75;;;16.50;62.50;;;;;;4957510;28;20042;-70
2022/07/13 04:27:06;;;;;;;0.85;0.73;;;16.50;62.50;;;;;;4943951;28;20039;-71
2022/07/13 04:29:31;;;;;;;0.82;0.77;;;16.50;62.70;;;;;;4951538;28;20027;-69
2022/07/13 04:31:57;;;;;;;1.08;0.93;;;16.50;62.80;;;;;;4965383;28;20028;-70
2022/07/13 04:34:22;;;;;;;1.05;0.75;;;16.50;62.90;;;;;;4944801;28;20054;-69
2022/07/13 04:36:48;;;;;;;2.63;0.82;;;16.50;63.20;;;;;;4943252;28;20113;-71
2022/07/13 04:39:13;;;;;;;1.83;1.10;;;16.60;63.30;;;;;;4936328;28;20027;-69
2022/07/13 04:41:39;;;;;;;1.75;1.10;;;16.60;63.50;;;;;;4965012;28;20078;-69
2022/07/13 04:44:04;;;;;;;1.83;1.25;;;16.60;63.60;;;;;;4948360;28;20113;-70
2022/07/13 04:46:30;;;;;;;1.50;1.00;;;16.60;63.70;;;;;;4932665;28;20118;-71
2022/07/13 04:48:56;;;;;;;2.85;1.25;;;16.60;63.70;;;;;;4930956;28;20561;-71
2022/07/13 04:51:21;;;;;;;1.48;0.95;;;16.70;63.70;;;;;;4925010;28;20094;-71
2022/07/13 04:53:47;;;;;;;2.05;1.23;;;16.70;63.70;;;;;;4938576;28;20093;-70
2022/07/13 04:56:12;;;;;;;1.67;1.10;;;16.70;63.80;;;;;;4936448;28;20051;-70
2022/07/13 04:58:38;;;;;;;2.08;1.10;;;16.70;63.80;;;;;;4956570;28;20036;-70
2022/07/13 05:01:07;;;;;;;1.85;1.20;;;16.70;64.00;;;;;;4962278;28;20081;-70
2022/07/13 05:03:33;;;;;;;1.33;1.17;;;16.70;64.10;;;;;;4945450;28;20038;-72
2022/07/13 05:05:59;;;;;;;1.73;1.23;;;16.80;64.20;;;;;;4955787;28;22002;-70
2022/07/13 05:08:25;;;;;;;1.02;0.80;;;16.80;64.20;;;;;;4903880;28;20055;-70
2022/07/13 05:10:51;;;;;;;2.50;0.90;;;16.90;64.30;;;;;;4930101;28;20070;-70
2022/07/13 05:13:17;;;;;;;2.65;1.27;;;16.90;64.30;;;;;;4943764;28;20043;-71
2022/07/13 05:15:42;;;;;;;2.70;1.67;;;16.90;64.30;;;;;;4945632;28;20046;-70
2022/07/13 05:18:08;;;;;;;9.07;1.80;;;17.00;64.50;;;;;;4942565;28;20031;-70
2022/07/13 05:20:33;;;;;;;1.75;1.27;;;17.00;64.60;;;;;;4931505;28;20042;-70
2022/07/13 05:22:59;;;;;;;3.42;2.05;;;17.10;64.60;;;;;;4937700;28;20046;-71
2022/07/13 05:25:24;;;;;;;5.88;1.50;;;17.10;64.50;;;;;;4949272;28;20527;-70
2022/07/13 05:27:50;;;;;;;2.50;1.48;;;17.20;64.70;;;;;;4922111;28;20075;-71
2022/07/13 05:30:16;;;;;;;2.40;1.58;;;17.20;64.70;;;;;;4963369;28;20534;-71
2022/07/13 05:32:41;;;;;;;3.63;1.75;;;17.30;64.70;;;;;;4944948;28;20105;-70
2022/07/13 05:35:07;;;;;;;7.40;1.50;;;17.30;64.80;;;;;;4928504;28;20111;-71
2022/07/13 05:37:33;;;;;;;2.60;1.50;;;17.30;64.70;;;;;;4949883;28;20034;-70
2022/07/13 05:39:59;;;;;;;4.72;1.42;;;17.40;64.80;;;;;;4948931;28;20050;-72
2022/07/13 05:42:26;;;;;;;7.53;1.70;;;17.40;64.80;;;;;;4938286;28;20511;-70
2022/07/13 05:44:51;;;;;;;2.00;1.50;;;17.50;64.80;;;;;;4937650;28;20623;-71
2022/07/13 05:47:17;;;;;;;3.78;1.25;;;17.50;64.80;;;;;;4940198;28;20043;-71
2022/07/13 05:49:42;;;;;;;3.20;1.40;;;17.60;64.70;;;;;;4929932;28;20035;-71
2022/07/13 05:52:08;;;;;;;1.60;1.08;;;17.60;64.70;;;;;;4932606;28;20027;-70
2022/07/13 05:54:35;;;;;;;5.68;1.17;;;17.70;64.60;;;;;;4948709;28;20412;-70
2022/07/13 05:57:00;;;;;;;7.38;2.30;;;17.80;64.50;;;;;;4912955;28;20481;-69
2022/07/13 05:59:26;;;;;;;3.35;2.13;;;17.80;64.50;;;;;;4936402;28;20484;-69
2022/07/13 06:01:51;;;;;;;5.93;2.55;;;17.80;64.40;;;;;;4927376;28;20049;-70
2022/07/13 06:04:17;;;;;;;10.38;2.42;;;17.90;64.20;;;;;;4947710;28;20799;-72
2022/07/13 06:06:42;;;;;;;4.22;1.90;;;18.00;64.20;;;;;;4958196;28;20050;-70
2022/07/13 06:09:08;;;;;;;3.38;2.05;;;18.00;64.30;;;;;;4946195;28;20325;-70
2022/07/13 06:11:33;;;;;;;2.95;2.20;;;18.00;64.20;;;;;;4945727;28;20046;-69
2022/07/13 06:13:59;;;;;;;5.70;1.95;;;18.10;64.20;;;;;;4946058;28;20072;-69
2022/07/13 06:16:25;;;;;;;2.58;2.38;;;18.10;64.10;;;;;;4947645;28;20047;-69
2022/07/13 06:18:50;;;;;;;3.25;1.95;;;18.30;64.30;;;;;;4936858;28;20046;-69
2022/07/13 06:21:16;;;;;;;4.63;2.78;;;18.30;63.90;;;;;;4946458;28;20066;-70
2022/07/13 06:23:41;;;;;;;2.60;1.92;;;18.40;63.80;;;;;;4946665;28;20452;-70
2022/07/13 06:26:07;;;;;;;4.55;2.60;;;18.50;63.80;;;;;;4939038;28;20034;-70
2022/07/13 06:28:32;;;;;;;4.82;2.75;;;18.50;63.50;;;;;;4945763;28;20031;-70
2022/07/13 06:30:58;;;;;;;3.65;2.05;;;18.60;63.40;;;;;;4943042;28;20055;-70
2022/07/13 06:33:23;;;;;;;8.00;2.72;;;18.60;63.20;;;;;;4981689;28;20774;-70
2022/07/13 06:35:49;;;;;;;3.22;2.20;;;18.70;63.00;;;;;;4989804;28;20063;-69
2022/07/13 06:38:15;;;;;;;4.13;2.25;;;18.80;62.90;;;;;;4960694;28;20735;-70
2022/07/13 06:40:40;;;;;;;3.22;2.05;;;18.90;62.80;;;;;;4971768;28;20043;-72
2022/07/13 06:43:06;;;;;;;2.55;1.88;;;18.90;62.60;;;;;;4957837;28;20732;-72
2022/07/13 06:45:31;;;;;;;4.47;1.80;;;19.00;62.60;;;;;;4979793;28;20034;-70
2022/07/13 06:47:57;;;;;;;3.40;1.40;;;19.10;62.40;;;;;;4950266;28;20612;-70
2022/07/13 06:50:22;;;;;;;1.60;1.50;;;19.20;62.30;;;;;;4950263;28;20641;-70
2022/07/13 06:52:48;;;;;;;3.75;2.00;;;19.30;62.10;;;;;;4943578;28;20067;-70
2022/07/13 06:55:13;;;;;;;5.22;1.73;;;19.40;61.90;;;;;;4942953;28;20121;-70
2022/07/13 06:57:39;;;;;;;3.50;1.42;;;19.50;62.00;;;;;;4952035;28;20058;-70
2022/07/13 07:00:06;;;;;;;4.07;1.90;;;19.60;61.80;;;;;;4916285;28;20039;-73
2022/07/13 07:02:31;;;;;;;6.50;1.42;;;19.70;61.70;;;;;;4956605;28;20143;-69
2022/07/13 07:04:57;;;;;;;4.35;1.40;;;19.80;61.50;;;;;;4933099;28;20126;-70
2022/07/13 07:07:22;;;;;;;4.60;1.23;;;19.90;61.40;;;;;;4927988;28;20616;-70
2022/07/13 07:09:48;;;;;;;2.55;1.30;;;20.00;61.10;;;;;;4923683;28;20562;-70
2022/07/13 07:12:13;;;;;;;2.17;1.30;;;20.10;61.10;;;;;;4943646;28;20121;-70
2022/07/13 07:14:39;;;;;;;5.72;1.42;;;20.20;60.80;;;;;;4938415;28;20138;-70
2022/07/13 07:17:04;;;;;;;2.45;1.15;;;20.40;61.50;;;;;;4944817;28;20042;-70
2022/07/13 07:19:30;;;;;;;5.70;1.42;;;20.50;60.40;;;;;;4937364;28;20139;-71
2022/07/13 07:21:55;;;;;;;4.90;1.85;;;20.60;60.20;;;;;;4946261;28;20122;-71
2022/07/13 07:24:22;;;;;;;5.78;1.55;;;20.80;60.80;;;;;;4956573;28;20125;-70
2022/07/13 07:26:51;;;;;;;3.92;1.40;;;20.90;59.80;;;;;;4928777;28;20035;-71
2022/07/13 07:29:16;;;;;;;1.95;1.25;;;21.10;59.60;;;;;;4950326;28;20085;-71
2022/07/13 07:31:42;;;;;;;4.72;1.65;;;21.20;59.40;;;;;;4929753;28;20114;-71
2022/07/13 07:34:07;;;;;;;1.90;1.63;;;21.40;59.20;;;;;;4943381;28;21275;-70
2022/07/13 07:36:33;;;;;;;1.33;1.23;;;21.50;59.00;;;;;;4954599;28;20038;-71
2022/07/13 07:38:59;;;;;;;1.23;1.00;;;21.60;58.80;;;;;;4957919;28;20094;-72
2022/07/13 07:41:24;;;;;;;3.33;1.00;;;21.80;58.70;;;;;;4940437;28;20415;-72
2022/07/13 07:43:50;;;;;;;2.28;1.00;;;21.90;58.40;;;;;;4928506;28;20047;-71
2022/07/13 07:46:15;;;;;;;2.60;1.00;;;22.10;58.00;;;;;;4948643;28;20748;-71
2022/07/13 07:48:41;;;;;;;2.20;1.15;;;22.20;57.70;;;;;;4946998;28;20047;-72
2022/07/13 07:51:06;;;;;;;2.95;0.90;;;22.30;57.60;;;;;;4951121;28;20479;-71
2022/07/13 07:53:32;;;;;;;2.30;1.20;;;22.50;58.10;;;;;;4964742;28;20138;-71
2022/07/13 07:55:58;;;;;;;46.60;10.93;;;22.60;57.20;;;;;;4949618;28;20041;-71
2022/07/13 07:58:23;;;;;;;87.10;24.60;;;22.70;56.90;;;;;;4958136;28;20050;-73
2022/07/13 08:00:49;;;;;;;27.05;7.32;;;22.90;56.80;;;;;;4942066;28;20097;-71
2022/07/13 08:03:15;;;;;;;6.10;1.52;;;23.00;56.70;;;;;;4957417;28;20093;-72
2022/07/13 08:05:42;;;;;;;7.50;1.63;;;23.10;56.50;;;;;;4937982;28;20122;-71
2022/07/13 08:08:07;;;;;;;2.97;1.50;;;23.20;56.20;;;;;;4950210;28;20125;-74
2022/07/13 08:10:33;;;;;;;1.88;1.20;;;23.30;56.00;;;;;;4937998;28;21143;-71
2022/07/13 08:13:00;;;;;;;2.55;1.10;;;23.40;56.50;;;;;;4960438;28;20791;-72
2022/07/13 08:15:28;;;;;;;2.95;1.05;;;23.50;55.60;;;;;;4947939;28;20046;-71
2022/07/13 08:17:53;;;;;;;1.13;1.02;;;23.60;55.40;;;;;;4929858;28;20036;-71
2022/07/13 08:20:19;;;;;;;2.10;1.20;;;23.70;55.10;;;;;;4966225;28;20043;-71
2022/07/13 08:22:45;;;;;;;2.40;0.90;;;23.80;55.10;;;;;;4951273;28;20054;-71
2022/07/13 08:25:11;;;;;;;2.58;1.10;;;24.00;54.70;;;;;;4977872;28;20526;-71
2022/07/13 08:27:36;;;;;;;3.70;1.00;;;24.10;54.40;;;;;;4955152;28;20046;-71
2022/07/13 08:30:05;;;;;;;6.10;2.15;;;24.30;54.30;;;;;;4954296;28;20045;-71
2022/07/13 08:32:31;;;;;;;2.28;1.20;;;24.50;54.10;;;;;;4956032;28;20049;-70
2022/07/13 08:40:24;;;;;;;1.75;0.90;;;25.10;53.20;;;;;;4932824;28;20153;-71
2022/07/13 08:42:50;;;;;;;1.00;0.98;;;25.40;53.00;;;;;;4911967;28;20055;-71
2022/07/13 08:45:18;;;;;;;1.95;0.90;;;25.60;52.60;;;;;;4927822;28;20042;-71
2022/07/13 08:47:45;;;;;;;2.13;0.95;;;25.80;52.30;;;;;;4951459;28;20050;-74
2022/07/13 08:50:11;;;;;;;1.67;0.80;;;26.10;52.00;;;;;;4928229;28;20106;-72
2022/07/13 08:52:38;;;;;;;4.28;1.88;;;26.20;51.60;;;;;;4934094;28;20039;-71
2022/07/13 08:55:05;;;;;;;0.80;0.80;;;26.40;51.30;;;;;;4940684;28;20149;-72
2022/07/13 08:57:37;;;;;;;4.88;0.80;;;26.60;51.00;;;;;;4945493;28;20045;-71
2022/07/13 09:00:06;;;;;;;1.33;0.70;;;26.80;50.50;;;;;;4957492;28;20039;-71
2022/07/13 09:02:35;;;;;;;0.60;0.60;;;27.00;50.30;;;;;;4950851;28;20328;-71
2022/07/13 09:05:04;;;;;;;0.70;0.70;;;27.10;49.90;;;;;;4956599;28;20053;-71
2022/07/13 09:07:33;;;;;;;0.60;0.60;;;27.30;49.60;;;;;;4948254;28;20077;-72
2022/07/13 09:09:59;;;;;;;1.73;0.70;;;27.50;49.30;;;;;;4939177;28;20073;-72
2022/07/13 09:12:27;;;;;;;4.38;0.80;;;27.60;49.70;;;;;;4938548;28;20061;-71
2022/07/13 09:15:10;;;;;;;2.95;1.08;;;27.70;48.80;;;;;;4957173;28;20066;-71
2022/07/13 09:17:40;;;;;;;3.92;1.02;;;28.00;48.60;;;;;;4947529;28;20039;-72
2022/07/13 09:20:14;;;;;;;2.80;1.13;;;28.20;48.30;;;;;;4934009;28;20085;-72
2022/07/13 09:22:56;;;;;;;2.20;0.73;;;28.40;47.70;;;;;;4951820;28;22174;-71
2022/07/13 09:25:32;;;;;;;6.43;1.02;;;28.50;48.00;;;;;;4938890;28;20095;-71
2022/07/13 09:28:08;;;;;;;1.77;0.80;;;28.60;46.80;;;;;;4953160;28;20496;-71
2022/07/13 09:30:35;;;;;;;2.17;0.90;;;28.70;46.50;;;;;;4961045;28;20042;-71
2022/07/13 09:33:01;;;;;;;4.53;1.17;;;28.90;46.70;;;;;;4934881;28;20065;-71
2022/07/13 09:35:46;;;;;;;5.43;1.23;;;29.00;46.50;;;;;;4928468;28;20057;-72
2022/07/13 09:38:35;;;;;;;1.05;1.00;;;29.10;45.70;;;;;;4934173;28;20038;-72
2022/07/13 09:41:26;;;;;;;3.70;0.98;;;29.20;45.40;;;;;;4947888;28;20047;-71
2022/07/13 09:46:57;;;;;;;3.17;1.00;;;29.50;45.40;;;;;;4967599;28;20046;-71
2022/07/13 09:49:31;;;;;;;4.07;1.02;;;29.60;44.40;;;;;;4928846;28;20073;-72
2022/07/13 09:51:57;;;;;;;4.70;1.00;;;29.70;44.50;;;;;;4933697;28;20841;-71
2022/07/13 09:54:23;;;;;;;2.05;0.75;;;29.90;44.50;;;;;;4944056;28;20038;-72
2022/07/13 09:56:51;;;;;;;2.13;0.60;;;29.90;44.10;;;;;;4955283;28;20030;-71
2022/07/13 09:59:17;;;;;;;2.28;0.80;;;30.00;43.80;;;;;;4939689;28;20117;-71
2022/07/13 10:01:45;;;;;;;2.65;0.75;;;30.00;43.30;;;;;;4962258;28;20502;-73
2022/07/13 10:04:11;;;;;;;2.72;0.70;;;30.10;42.90;;;;;;4947067;28;20086;-72
2022/07/13 10:06:37;;;;;;;1.33;0.70;;;30.20;42.80;;;;;;4961479;28;20051;-71
2022/07/13 10:09:02;;;;;;;0.65;0.60;;;30.40;42.50;;;;;;4946017;28;20047;-71
2022/07/13 10:11:30;;;;;;;1.80;0.73;;;30.60;42.00;;;;;;4934579;28;20035;-71
2022/07/13 10:13:57;;;;;;;1.50;0.60;;;30.70;41.40;;;;;;4968199;28;20051;-71
2022/07/13 10:16:22;;;;;;;1.05;0.77;;;30.90;41.20;;;;;;4937203;28;20186;-71
2022/07/13 10:18:51;;;;;;;1.40;0.80;;;31.20;40.80;;;;;;4944477;28;20125;-73
2022/07/13 10:21:22;;;;;;;1.05;0.50;;;31.30;40.30;;;;;;4908071;28;20070;-72
2022/07/13 10:23:48;;;;;;;1.75;0.63;;;31.50;40.00;;;;;;4954383;28;20058;-72
2022/07/13 10:26:24;;;;;;;0.50;0.50;;;31.80;39.70;;;;;;4955371;28;20063;-72
2022/07/13 10:29:09;;;;;;;0.60;0.60;;;31.90;39.70;;;;;;4922192;28;20046;-71
2022/07/13 10:31:38;;;;;;;2.25;0.65;;;32.10;38.00;;;;;;4960249;28;20041;-72
2022/07/13 10:34:05;;;;;;;0.68;0.60;;;32.20;38.80;;;;;;4935896;28;20035;-71
2022/07/13 10:37:03;;;;;;;1.35;0.60;;;32.30;38.30;;;;;;4932400;28;20046;-73
2022/07/13 10:39:29;;;;;;;0.40;0.40;;;32.40;37.30;;;;;;4918511;28;20032;-72
2022/07/13 10:42:05;;;;;;;2.22;0.68;;;32.50;37.90;;;;;;4951307;28;20047;-72
2022/07/13 10:44:37;;;;;;;2.55;0.45;;;32.50;37.50;;;;;;4935947;28;20051;-71
2022/07/13 10:47:11;;;;;;;1.75;0.50;;;32.70;37.10;;;;;;4942811;28;20034;-72
2022/07/13 10:49:44;;;;;;;0.65;0.65;;;32.70;36.80;;;;;;4939716;28;20037;-71
2022/07/13 10:52:20;;;;;;;0.90;0.57;;;32.80;36.80;;;;;;4933356;28;20054;-71
2022/07/13 10:55:04;;;;;;;0.60;0.60;;;32.90;36.20;;;;;;4964911;28;20705;-72
2022/07/13 10:57:30;;;;;;;2.92;0.60;;;33.00;35.80;;;;;;4959149;28;20046;-71
2022/07/13 11:00:18;;;;;;;1.88;0.70;;;33.20;36.40;;;;;;4930151;28;20102;-71
2022/07/13 11:02:45;;;;;;;2.33;0.50;;;33.30;35.50;;;;;;4919684;28;20037;-72
2022/07/13 11:05:11;;;;;;;0.90;0.47;;;33.40;35.80;;;;;;4960439;28;20758;-72
2022/07/13 11:07:47;;;;;;;0.50;0.50;;;33.50;35.40;;;;;;4973661;28;20678;-72
2022/07/13 11:10:20;;;;;;;1.63;0.60;;;33.60;34.50;;;;;;4970145;28;20124;-71
2022/07/13 11:13:15;;;;;;;0.40;0.40;;;33.70;34.90;;;;;;4961021;28;20042;-72
2022/07/13 11:15:53;;;;;;;1.02;0.52;;;33.70;33.70;;;;;;4955212;28;20567;-72
2022/07/13 11:18:22;;;;;;;0.57;0.30;;;33.70;33.70;;;;;;4951154;28;20043;-72
2022/07/13 11:21:18;;;;;;;2.53;0.50;;;33.80;34.00;;;;;;4971495;28;20744;-72
2022/07/13 11:26:46;;;;;;;0.65;0.47;;;33.80;33.70;;;;;;4934496;28;20075;-71
2022/07/13 11:29:42;;;;;;;2.50;0.50;;;33.80;33.00;;;;;;4946409;28;20070;-71
2022/07/13 11:32:07;;;;;;;2.58;0.47;;;33.80;32.50;;;;;;4935664;28;20057;-71
2022/07/13 11:34:34;;;;;;;1.48;0.40;;;33.80;33.20;;;;;;4969920;28;20030;-72
2022/07/13 11:37:03;;;;;;;2.30;0.50;;;33.80;32.90;;;;;;4968310;28;20052;-72
2022/07/13 11:39:30;;;;;;;0.93;0.70;;;33.90;32.70;;;;;;4967486;28;20174;-73
2022/07/13 11:41:56;;;;;;;2.85;0.60;;;33.90;32.50;;;;;;4951004;28;20054;-71
2022/07/13 11:44:24;;;;;;;1.70;0.40;;;34.00;32.30;;;;;;4936708;28;20137;-71
2022/07/13 11:46:54;;;;;;;8.63;0.70;;;34.00;32.00;;;;;;4959336;28;20067;-71
2022/07/13 11:49:20;;;;;;;1.90;0.50;;;34.00;32.00;;;;;;4931869;28;20077;-73
2022/07/13 11:51:45;;;;;;;7.95;1.02;;;34.00;31.80;;;;;;4937343;28;20314;-71
2022/07/13 11:54:15;;;;;;;3.42;0.50;;;34.00;31.70;;;;;;4956153;28;20283;-72
2022/07/13 11:56:48;;;;;;;1.83;0.53;;;34.00;31.40;;;;;;4927065;28;20038;-72
2022/07/13 11:59:34;;;;;;;1.83;0.52;;;34.00;31.20;;;;;;4936849;28;20086;-72
2022/07/13 12:02:02;;;;;;;1.98;0.73;;;34.10;31.40;;;;;;4940255;28;20102;-72
2022/07/13 12:04:27;;;;;;;1.67;0.50;;;34.20;31.50;;;;;;4936696;28;20066;-71
2022/07/13 12:07:30;;;;;;;2.20;0.55;;;34.20;31.40;;;;;;4932796;28;20051;-72
2022/07/13 12:10:03;;;;;;;0.65;0.40;;;34.20;30.80;;;;;;4932492;28;20047;-71
2022/07/13 12:12:36;;;;;;;0.98;0.65;;;34.20;31.30;;;;;;4896700;28;20041;-71
2022/07/13 12:15:02;;;;;;;5.03;0.65;;;34.20;31.40;;;;;;4903617;28;20078;-72
2022/07/13 12:17:28;;;;;;;0.63;0.40;;;34.20;31.50;;;;;;4898086;28;20608;-72
2022/07/13 12:20:14;;;;;;;1.23;0.50;;;34.20;31.40;;;;;;4902191;29;20505;-74
2022/07/13 12:22:40;;;;;;;2.05;0.60;;;34.10;30.70;;;;;;4898474;28;20059;-75
2022/07/13 12:25:06;;;;;;;1.52;0.60;;;34.10;31.20;;;;;;4906968;28;20027;-72
2022/07/13 12:27:32;;;;;;;1.95;0.50;;;34.10;31.20;;;;;;4902629;28;20099;-71
2022/07/13 12:30:08;;;;;;;1.60;0.50;;;34.20;31.30;;;;;;4894449;29;20036;-72
2022/07/13 12:33:02;;;;;;;1.88;0.60;;;34.20;31.10;;;;;;4892204;28;20031;-72
2022/07/13 12:35:31;;;;;;;1.83;0.35;;;34.20;30.90;;;;;;4933398;28;20087;-72
2022/07/13 12:37:58;;;;;;;5.90;0.70;;;34.20;31.30;;;;;;4901905;29;20200;-72
2022/07/13 12:40:49;;;;;;;1.52;0.47;;;34.20;31.40;;;;;;4883948;28;20043;-73
2022/07/13 12:43:32;;;;;;;;;;;34.20;30.90;;;;;;4914348;28;20058;-72
2022/07/13 12:46:02;;;;;;;0.85;0.43;;;34.20;31.50;;;;;;4947907;28;19994;-73
2022/07/13 12:48:32;;;;;;;0.77;0.40;;;34.10;31.60;;;;;;4963148;28;20712;-72
2022/07/13 12:51:01;;;;;;;2.38;0.40;;;34.00;31.40;;;;;;4955501;28;20039;-72
2022/07/13 12:53:58;;;;;;;1.23;0.40;;;34.00;31.30;;;;;;4935173;28;20400;-72
2022/07/13 12:56:24;;;;;;;0.50;0.32;;;34.10;30.80;;;;;;4930047;28;20579;-72
2022/07/13 12:59:04;;;;;;;0.75;0.57;;;34.20;31.20;;;;;;4967037;28;20040;-72
2022/07/13 13:01:30;;;;;;;0.40;0.40;;;34.20;30.50;;;;;;4953655;28;20045;-72
2022/07/13 13:04:00;;;;;;;1.67;0.52;;;34.30;30.90;;;;;;4927405;28;20046;-72
2022/07/13 13:06:26;;;;;;;1.63;0.85;;;34.30;30.50;;;;;;4919354;28;20043;-72